Time;durP1;ratioP1;P1;durP2;ratioP2;P2;SDS_P1;SDS_P2;PMS_P1;PMS_P2;Temp;Humidity;BMP_temperature;BMP_pressure;BME280_temperature;BME280_humidity;BME280_pressure;Samples;Min_cycle;Max_cycle;Signal;HPM_P1;HPM_P2
2022/06/22 00:02:06;;;;;;;4.57;1.17;;;22.70;37.50;;;;;;5051250;28;20028;-79
2022/06/22 00:04:51;;;;;;;2.17;0.85;;;22.70;37.70;;;;;;5055614;28;20052;-79
2022/06/22 00:07:29;;;;;;;2.78;1.33;;;22.70;37.70;;;;;;5055345;28;20072;-78
2022/06/22 00:10:11;;;;;;;2.10;1.00;;;22.60;37.70;;;;;;5055319;28;20472;-78
2022/06/22 00:12:38;;;;;;;1.92;1.40;;;22.60;37.70;;;;;;5056200;28;20036;-78
2022/06/22 00:15:34;;;;;;;1.73;1.05;;;22.60;37.80;;;;;;5056172;28;20025;-78
2022/06/22 00:18:03;;;;;;;3.30;0.93;;;22.50;38.00;;;;;;5056698;28;20355;-78
2022/06/22 00:20:32;;;;;;;2.22;1.10;;;22.50;37.90;;;;;;5056030;28;20032;-78
2022/06/22 00:22:59;;;;;;;6.53;0.95;;;22.40;37.80;;;;;;5054919;28;20040;-78
2022/06/22 00:25:31;;;;;;;1.00;0.90;;;22.40;38.00;;;;;;5056307;28;20017;-79
2022/06/22 00:28:51;;;;;;;1.00;0.88;;;22.40;38.10;;;;;;5054803;28;20091;-78
2022/06/22 00:31:38;;;;;;;4.32;0.90;;;22.30;38.10;;;;;;5056128;28;20037;-78
2022/06/22 00:34:09;;;;;;;1.27;0.80;;;22.30;38.40;;;;;;5056141;28;20029;-78
2022/06/22 00:36:54;;;;;;;1.30;0.82;;;22.30;38.50;;;;;;5056073;28;20025;-78
2022/06/22 00:39:28;;;;;;;2.03;1.30;;;22.30;38.70;;;;;;5054806;28;20025;-78
2022/06/22 00:42:14;;;;;;;0.95;0.60;;;22.30;38.90;;;;;;5055991;28;20381;-78
2022/06/22 00:44:48;;;;;;;1.38;0.82;;;22.30;38.90;;;;;;5056166;28;20021;-78
2022/06/22 00:47:28;;;;;;;2.17;1.27;;;22.30;38.90;;;;;;5054420;28;20116;-78
2022/06/22 00:49:59;;;;;;;1.10;1.00;;;22.40;41.20;;;;;;5054524;28;20476;-79
2022/06/22 00:52:36;;;;;;;1.92;1.17;;;22.40;41.70;;;;;;5054433;28;20123;-79
2022/06/22 00:55:04;;;;;;;3.33;1.50;;;22.40;42.80;;;;;;5054482;28;20072;-78
2022/06/22 00:57:36;;;;;;;5.75;1.30;;;22.40;43.50;;;;;;5054319;28;20384;-78
2022/06/22 01:00:15;;;;;;;3.42;1.42;;;22.40;43.50;;;;;;5054370;28;20052;-78
2022/06/22 01:02:47;;;;;;;1.98;1.30;;;22.40;42.70;;;;;;5053937;28;20166;-79
2022/06/22 01:05:29;;;;;;;2.35;1.50;;;22.40;43.70;;;;;;5055583;28;20041;-79
2022/06/22 01:08:21;;;;;;;2.20;1.10;;;22.30;43.20;;;;;;5053982;28;20380;-78
2022/06/22 01:10:56;;;;;;;2.95;1.40;;;22.40;42.30;;;;;;5054747;28;20029;-78
2022/06/22 01:13:43;;;;;;;1.73;1.23;;;22.40;42.10;;;;;;5054845;28;20026;-78
2022/06/22 01:16:20;;;;;;;1.20;1.00;;;22.40;41.70;;;;;;5033155;28;20025;-79
2022/06/22 01:18:56;;;;;;;4.63;1.40;;;22.50;41.90;;;;;;5033943;28;20362;-78
2022/06/22 01:21:28;;;;;;;1.25;1.10;;;22.50;42.80;;;;;;5033778;28;20033;-78
2022/06/22 01:23:59;;;;;;;3.25;1.20;;;22.50;42.40;;;;;;5033755;28;20033;-79
2022/06/22 01:26:43;;;;;;;1.67;1.00;;;22.50;41.90;;;;;;5035278;28;20051;-78
2022/06/22 01:29:22;;;;;;;1.20;1.00;;;22.50;41.60;;;;;;5033815;28;20492;-78
2022/06/22 01:32:06;;;;;;;1.92;1.10;;;22.60;42.00;;;;;;5033311;28;20040;-79
2022/06/22 01:34:35;;;;;;;1.33;1.10;;;22.60;42.10;;;;;;5033675;28;20079;-78
2022/06/22 01:37:05;;;;;;;1.67;1.23;;;22.60;41.90;;;;;;5033239;28;20029;-78
2022/06/22 01:39:31;;;;;;;2.75;1.17;;;22.60;42.40;;;;;;5033483;28;20080;-78
2022/06/22 01:42:05;;;;;;;3.78;1.50;;;22.60;42.70;;;;;;5034655;28;20026;-79
2022/06/22 01:44:43;;;;;;;2.03;1.27;;;22.60;43.40;;;;;;5034770;28;20108;-78
2022/06/22 01:47:50;;;;;;;2.17;1.17;;;22.60;43.30;;;;;;5034669;28;20025;-78
2022/06/22 01:50:26;;;;;;;1.73;1.30;;;22.60;43.00;;;;;;4992756;28;20157;-78
2022/06/22 01:53:31;;;;;;;1.60;1.27;;;22.60;43.30;;;;;;5028314;28;20041;-78
2022/06/22 01:56:10;;;;;;;2.70;1.08;;;22.60;43.60;;;;;;5033146;28;20040;-78
2022/06/22 01:58:54;;;;;;;2.33;1.30;;;22.60;43.40;;;;;;5034120;28;20225;-78
2022/06/22 02:01:38;;;;;;;2.28;1.40;;;22.60;43.30;;;;;;5032881;28;20124;-78
2022/06/22 02:04:33;;;;;;;3.72;1.70;;;22.60;43.70;;;;;;5033029;28;20541;-78
2022/06/22 02:10:29;;;;;;;2.28;1.13;;;22.60;44.10;;;;;;5034185;28;20036;-79
2022/06/22 02:13:31;;;;;;;1.40;0.90;;;22.60;43.30;;;;;;5038275;28;20029;-77
2022/06/22 02:15:59;;;;;;;1.63;1.00;;;22.60;43.30;;;;;;5052660;28;20033;-78
2022/06/22 02:18:31;;;;;;;1.42;1.33;;;22.60;43.30;;;;;;5053973;28;20025;-77
2022/06/22 02:21:00;;;;;;;2.67;1.20;;;22.60;43.30;;;;;;5052574;28;20477;-77
2022/06/22 02:23:32;;;;;;;1.98;1.50;;;22.60;43.50;;;;;;5052555;28;20075;-78
2022/06/22 02:26:07;;;;;;;6.07;1.60;;;22.60;44.20;;;;;;5053362;28;20025;-79
2022/06/22 02:28:33;;;;;;;2.47;1.33;;;22.60;44.00;;;;;;5053522;28;20021;-77
2022/06/22 02:31:00;;;;;;;1.75;1.30;;;22.50;43.90;;;;;;5052374;28;20028;-78
2022/06/22 02:33:26;;;;;;;1.58;1.20;;;22.50;44.20;;;;;;5052304;28;20028;-77
2022/06/22 02:35:53;;;;;;;2.33;1.40;;;22.60;44.50;;;;;;5053294;28;20377;-78
2022/06/22 02:38:19;;;;;;;2.15;1.17;;;22.60;45.00;;;;;;5053284;28;20104;-78
2022/06/22 02:46:21;;;;;;;2.03;1.02;;;22.60;44.60;;;;;;5053139;28;20032;-78
2022/06/22 02:48:54;;;;;;;2.78;1.60;;;22.60;44.60;;;;;;5053412;28;20031;-78
2022/06/22 02:51:28;;;;;;;2.58;1.25;;;22.60;44.60;;;;;;5052078;28;20464;-78
2022/06/22 02:53:57;;;;;;;2.33;1.42;;;22.50;44.30;;;;;;5053355;28;20029;-78
2022/06/22 02:56:35;;;;;;;2.92;1.85;;;22.60;44.20;;;;;;5052013;28;20025;-79
2022/06/22 02:59:02;;;;;;;2.38;1.30;;;22.60;44.40;;;;;;5052035;28;20040;-78
2022/06/22 03:01:32;;;;;;;2.40;1.15;;;22.60;44.00;;;;;;5053478;28;20465;-77
2022/06/22 03:04:04;;;;;;;1.98;1.40;;;22.60;44.00;;;;;;5053043;28;20104;-77
2022/06/22 03:06:34;;;;;;;2.35;1.15;;;22.50;43.90;;;;;;5051884;28;20025;-77
2022/06/22 03:09:03;;;;;;;2.00;1.00;;;22.50;43.80;;;;;;5051886;28;20063;-77
2022/06/22 03:11:30;;;;;;;1.50;1.00;;;22.50;43.30;;;;;;5051297;28;20029;-78
2022/06/22 03:14:08;;;;;;;3.00;1.00;;;22.50;43.00;;;;;;5052989;28;20033;-79
2022/06/22 03:16:37;;;;;;;3.22;1.20;;;22.40;42.80;;;;;;5051475;28;20108;-78
2022/06/22 03:19:12;;;;;;;2.55;1.65;;;22.50;42.90;;;;;;5051383;28;20115;-78
2022/06/22 03:21:41;;;;;;;1.92;1.10;;;22.40;42.90;;;;;;5051800;28;20136;-78
2022/06/22 03:24:38;;;;;;;1.40;1.00;;;22.40;43.00;;;;;;5051753;28;20384;-78
2022/06/22 03:27:13;;;;;;;3.03;1.20;;;22.40;42.90;;;;;;5032156;28;20033;-78
2022/06/22 03:29:47;;;;;;;2.25;1.33;;;22.40;42.60;;;;;;5031815;28;20021;-78
2022/06/22 03:32:27;;;;;;;1.92;0.80;;;22.40;42.70;;;;;;5033226;28;20080;-78
2022/06/22 03:35:14;;;;;;;1.75;0.88;;;22.40;42.70;;;;;;5033015;28;20025;-79
2022/06/22 03:38:04;;;;;;;3.20;1.30;;;22.40;42.60;;;;;;5033298;28;20022;-78
2022/06/22 03:40:48;;;;;;;3.40;1.42;;;22.40;42.40;;;;;;5034712;28;20037;-78
2022/06/22 03:43:34;;;;;;;6.15;1.38;;;22.40;42.30;;;;;;5035695;28;20117;-78
2022/06/22 03:46:09;;;;;;;3.08;1.20;;;22.40;42.20;;;;;;5036533;28;20465;-77
2022/06/22 03:48:58;;;;;;;4.00;1.33;;;22.40;41.70;;;;;;5035614;28;20026;-78
2022/06/22 03:51:30;;;;;;;4.43;1.30;;;22.40;41.40;;;;;;5036667;28;20030;-78
2022/06/22 03:54:09;;;;;;;4.88;1.60;;;22.40;41.30;;;;;;5035373;28;20029;-78
2022/06/22 03:56:39;;;;;;;2.13;1.10;;;22.40;41.30;;;;;;5036415;28;20025;-78
2022/06/22 03:59:06;;;;;;;1.60;0.93;;;22.50;41.10;;;;;;5036582;28;20022;-79
2022/06/22 04:01:34;;;;;;;3.65;1.08;;;22.50;40.90;;;;;;5035136;28;20037;-78
2022/06/22 04:04:00;;;;;;;2.92;1.30;;;22.50;40.80;;;;;;5034972;28;20053;-78
2022/06/22 04:06:31;;;;;;;2.53;1.17;;;22.50;41.00;;;;;;5034967;28;20033;-78
2022/06/22 04:09:02;;;;;;;2.13;1.08;;;22.60;41.00;;;;;;5035105;28;20033;-78
2022/06/22 04:11:40;;;;;;;3.75;1.48;;;22.60;41.00;;;;;;5051535;28;20534;-77
2022/06/22 04:14:32;;;;;;;2.38;1.20;;;22.60;40.80;;;;;;5056281;28;20036;-78
2022/06/22 04:17:08;;;;;;;14.70;11.45;;;22.60;40.60;;;;;;5054824;28;20021;-78
2022/06/22 04:19:47;;;;;;;5.68;2.72;;;22.60;40.50;;;;;;5054688;28;20171;-78
2022/06/22 04:22:22;;;;;;;5.75;1.30;;;22.60;40.60;;;;;;5055851;28;20036;-78
2022/06/22 04:24:56;;;;;;;3.70;1.13;;;22.70;40.60;;;;;;5054854;28;20031;-78
2022/06/22 04:27:33;;;;;;;;;;;22.70;40.50;;;;;;5056534;28;20025;-78
2022/06/22 04:30:06;;;;;;;2.08;1.20;;;22.70;40.70;;;;;;5054667;28;19927;-78
2022/06/22 04:33:21;;;;;;;4.50;1.13;;;22.80;40.30;;;;;;5055811;28;20036;-78
2022/06/22 04:35:54;;;;;;;1.42;1.05;;;22.80;40.50;;;;;;4977773;28;20038;-78
2022/06/22 04:38:26;;;;;;;4.78;1.20;;;22.90;41.10;;;;;;4977830;28;20035;-78
2022/06/22 04:41:04;;;;;;;1.80;1.30;;;22.90;40.50;;;;;;4994215;28;20513;-78
2022/06/22 04:43:30;;;;;;;5.07;1.20;;;22.90;40.30;;;;;;4977973;28;20026;-78
2022/06/22 04:45:57;;;;;;;3.13;1.60;;;23.00;40.40;;;;;;4978459;28;20089;-78
2022/06/22 04:48:39;;;;;;;2.38;1.27;;;23.00;40.20;;;;;;4977672;28;20590;-80
2022/06/22 04:51:07;;;;;;;6.05;1.52;;;23.00;40.00;;;;;;4976345;28;20189;-78
2022/06/22 04:53:41;;;;;;;2.58;1.40;;;23.10;39.80;;;;;;4977460;28;20031;-78
2022/06/22 04:56:11;;;;;;;4.95;1.50;;;23.10;39.70;;;;;;4977502;28;20038;-78
2022/06/22 04:58:48;;;;;;;4.05;1.80;;;23.10;39.40;;;;;;4977325;28;20038;-79
2022/06/22 05:01:22;;;;;;;5.10;1.85;;;23.20;39.40;;;;;;4993545;28;20073;-78
2022/06/22 05:03:49;;;;;;;1.83;1.33;;;23.20;39.40;;;;;;4993390;28;20050;-78
2022/06/22 05:06:54;;;;;;;5.55;1.80;;;23.20;39.60;;;;;;4993635;28;20426;-78
2022/06/22 05:09:34;;;;;;;3.63;1.80;;;23.20;39.60;;;;;;4977222;28;20023;-78
2022/06/22 05:12:01;;;;;;;3.75;2.00;;;23.30;39.70;;;;;;5044068;28;20480;-77
2022/06/22 05:14:32;;;;;;;1.65;1.25;;;23.40;39.70;;;;;;5053850;28;20033;-78
2022/06/22 05:17:09;;;;;;;4.70;2.15;;;23.40;39.60;;;;;;5055099;28;20024;-77
2022/06/22 05:19:59;;;;;;;3.88;2.08;;;23.50;39.50;;;;;;5053793;28;20025;-78
2022/06/22 05:22:25;;;;;;;2.38;1.50;;;23.50;39.10;;;;;;5044317;28;20047;-77
2022/06/22 05:24:56;;;;;;;3.60;1.48;;;23.60;39.10;;;;;;5054330;28;20025;-78
2022/06/22 05:27:28;;;;;;;3.80;1.60;;;23.60;39.20;;;;;;5035036;28;20022;-77
2022/06/22 05:30:02;;;;;;;3.30;1.60;;;23.70;39.10;;;;;;5033626;28;20147;-78
2022/06/22 05:33:03;;;;;;;2.83;1.20;;;23.70;38.70;;;;;;5034491;28;20469;-78
2022/06/22 05:35:35;;;;;;;4.32;1.77;;;23.70;38.90;;;;;;4976578;28;20042;-78
2022/06/22 05:38:06;;;;;;;4.15;1.98;;;23.70;38.90;;;;;;4976780;28;20045;-78
2022/06/22 05:40:34;;;;;;;3.55;1.83;;;23.80;39.00;;;;;;4993107;28;20057;-78
2022/06/22 05:43:00;;;;;;;2.78;1.50;;;23.80;38.90;;;;;;4976604;28;20031;-78
2022/06/22 05:46:02;;;;;;;7.00;1.35;;;23.80;38.80;;;;;;4992812;28;20471;-78
2022/06/22 05:48:31;;;;;;;4.13;1.67;;;23.90;39.10;;;;;;4990883;28;20031;-78
2022/06/22 05:51:04;;;;;;;4.90;1.67;;;24.00;39.00;;;;;;4976406;28;20522;-78
2022/06/22 05:53:45;;;;;;;2.38;1.60;;;24.00;38.80;;;;;;4992854;28;20077;-78
2022/06/22 05:56:21;;;;;;;3.70;1.60;;;24.10;38.80;;;;;;4992626;28;20030;-78
2022/06/22 05:58:50;;;;;;;2.53;1.67;;;24.10;38.60;;;;;;4992605;28;20034;-75
2022/06/22 06:02:02;;;;;;;5.00;1.75;;;24.10;39.00;;;;;;4975987;28;20034;-79
2022/06/22 06:04:44;;;;;;;5.05;1.83;;;24.20;38.80;;;;;;4985306;28;20054;-76
2022/06/22 06:07:25;;;;;;;2.63;1.15;;;24.20;38.20;;;;;;4992582;28;20030;-77
2022/06/22 06:09:51;;;;;;;1.08;0.90;;;24.30;38.10;;;;;;4993762;28;20117;-76
2022/06/22 06:12:39;;;;;;;5.10;1.25;;;24.40;38.20;;;;;;5054147;28;20036;-77
2022/06/22 06:15:08;;;;;;;1.42;0.93;;;24.40;37.60;;;;;;5052951;28;20385;-76
2022/06/22 06:17:45;;;;;;;2.60;1.10;;;24.50;37.30;;;;;;5052790;28;20170;-76
2022/06/22 06:20:21;;;;;;;1.50;1.13;;;24.50;37.20;;;;;;5052844;28;20112;-77
2022/06/22 06:22:50;;;;;;;3.20;1.42;;;24.50;36.60;;;;;;5052985;28;20179;-76
2022/06/22 06:28:35;;;;;;;6.20;1.30;;;24.60;37.10;;;;;;5053816;28;20552;-77
2022/06/22 06:31:12;;;;;;;6.32;1.50;;;24.70;37.40;;;;;;5050679;28;20037;-78
2022/06/22 06:33:39;;;;;;;7.07;1.60;;;24.70;37.30;;;;;;5042956;28;20029;-77
2022/06/22 06:36:19;;;;;;;5.38;2.30;;;24.90;36.90;;;;;;5053447;28;20096;-77
2022/06/22 06:39:02;;;;;;;5.10;2.20;;;24.90;36.90;;;;;;5032482;28;20025;-77
2022/06/22 06:42:03;;;;;;;3.38;2.00;;;25.00;36.60;;;;;;5032423;28;20029;-76
2022/06/22 06:44:34;;;;;;;2.72;1.92;;;25.10;36.40;;;;;;5033233;28;20041;-78
2022/06/22 06:47:05;;;;;;;9.70;2.10;;;25.30;36.60;;;;;;5044663;28;20025;-78
2022/06/22 06:49:37;;;;;;;3.00;1.70;;;25.30;36.20;;;;;;5047870;28;20025;-76
2022/06/22 06:52:30;;;;;;;4.32;2.08;;;25.40;35.80;;;;;;5051898;28;20035;-77
2022/06/22 06:55:02;;;;;;;5.68;1.63;;;25.50;36.00;;;;;;5052390;28;20025;-76
2022/06/22 06:57:29;;;;;;;3.83;1.52;;;25.50;35.60;;;;;;5052938;28;20056;-77
2022/06/22 06:59:59;;;;;;;4.97;1.83;;;25.50;35.60;;;;;;5052019;28;20028;-77
2022/06/22 07:02:30;;;;;;;3.40;1.60;;;25.50;35.50;;;;;;5051311;28;20032;-73
2022/06/22 07:04:59;;;;;;;4.72;1.63;;;25.60;35.80;;;;;;5053490;28;20543;-76
2022/06/22 07:07:44;;;;;;;4.55;1.63;;;25.60;35.80;;;;;;5035319;28;20030;-76
2022/06/22 07:10:26;;;;;;;13.70;1.65;;;25.70;36.00;;;;;;5032098;28;20031;-76
2022/06/22 07:12:57;;;;;;;2.85;1.60;;;25.80;36.00;;;;;;5047001;28;20021;-76
2022/06/22 07:15:28;;;;;;;4.97;1.70;;;25.90;36.10;;;;;;5051779;28;20029;-75
2022/06/22 07:17:56;;;;;;;13.23;2.10;;;26.00;35.90;;;;;;5051540;28;20032;-76
2022/06/22 07:20:30;;;;;;;5.85;2.30;;;26.10;35.50;;;;;;5051933;28;20083;-77
2022/06/22 07:23:20;;;;;;;4.13;2.58;;;26.20;35.50;;;;;;5052176;28;20041;-77
2022/06/22 07:26:00;;;;;;;4.38;1.85;;;26.40;35.30;;;;;;5046234;28;20036;-76
2022/06/22 07:28:37;;;;;;;2.25;1.63;;;26.60;35.20;;;;;;5048476;28;20029;-77
2022/06/22 07:31:19;;;;;;;2.80;1.50;;;26.80;34.90;;;;;;5051533;28;20029;-77
2022/06/22 07:34:23;;;;;;;2.90;1.75;;;26.90;34.60;;;;;;5051761;28;20063;-78
2022/06/22 07:37:00;;;;;;;3.63;1.50;;;27.20;34.50;;;;;;4991282;28;20065;-78
2022/06/22 07:39:28;;;;;;;2.05;1.38;;;27.40;34.30;;;;;;4974911;28;20031;-78
2022/06/22 07:41:54;;;;;;;3.05;1.38;;;27.60;33.80;;;;;;4993140;28;20034;-79
2022/06/22 07:44:24;;;;;;;5.93;1.27;;;27.80;33.60;;;;;;4969259;28;20044;-79
2022/06/22 07:47:11;;;;;;;2.33;1.13;;;27.90;33.30;;;;;;4988484;28;20053;-78
2022/06/22 07:50:10;;;;;;;3.63;1.67;;;28.10;34.10;;;;;;4974958;28;20058;-78
2022/06/22 07:52:41;;;;;;;2.45;1.50;;;28.20;33.00;;;;;;4972143;28;20078;-77
2022/06/22 07:55:56;;;;;;;4.68;1.52;;;28.30;32.80;;;;;;4955735;28;20038;-79
2022/06/22 07:58:32;;;;;;;3.92;1.30;;;28.30;32.70;;;;;;4873438;29;20045;-78
2022/06/22 08:01:04;;;;;;;2.08;1.40;;;28.40;32.10;;;;;;4885134;29;20041;-78
2022/06/22 08:03:33;;;;;;;1.88;1.30;;;28.40;31.60;;;;;;4895236;29;20056;-78
2022/06/22 08:06:10;;;;;;;7.07;1.60;;;28.50;32.20;;;;;;4879141;29;20053;-78
2022/06/22 08:09:02;;;;;;;5.68;1.33;;;28.50;32.00;;;;;;4877153;29;20443;-78
2022/06/22 08:11:35;;;;;;;3.15;1.42;;;28.70;32.30;;;;;;4908298;29;20044;-78
2022/06/22 08:14:11;;;;;;;1.27;1.00;;;28.80;31.50;;;;;;4951742;29;20079;-77
2022/06/22 08:16:43;;;;;;;1.83;1.33;;;29.00;31.40;;;;;;4952313;29;20031;-77
2022/06/22 08:19:10;;;;;;;3.65;1.80;;;29.10;31.40;;;;;;4952531;29;20044;-75
2022/06/22 08:21:41;;;;;;;4.10;1.75;;;29.30;31.40;;;;;;4946172;29;20111;-76
2022/06/22 08:24:10;;;;;;;3.55;1.77;;;29.50;30.70;;;;;;4934742;29;20039;-76
2022/06/22 08:26:37;;;;;;;2.65;1.63;;;29.60;30.50;;;;;;4920852;29;20038;-76
2022/06/22 08:29:04;;;;;;;3.55;1.83;;;29.80;30.00;;;;;;4936772;29;20114;-76
2022/06/22 08:31:36;;;;;;;2.50;1.40;;;29.80;29.90;;;;;;4963447;28;20048;-76
2022/06/22 08:34:07;;;;;;;3.33;1.73;;;29.90;30.10;;;;;;5035501;28;20026;-76
2022/06/22 08:36:45;;;;;;;2.33;1.55;;;30.00;29.80;;;;;;5035389;28;20053;-78
2022/06/22 08:39:21;;;;;;;2.50;1.30;;;30.00;29.90;;;;;;5036037;28;20049;-76
2022/06/22 08:42:09;;;;;;;4.63;1.58;;;30.10;30.20;;;;;;5035059;28;20474;-76
2022/06/22 08:45:08;;;;;;;2.63;1.65;;;30.20;30.20;;;;;;5035894;28;20030;-76
2022/06/22 08:47:52;;;;;;;9.15;2.00;;;30.30;29.70;;;;;;5035005;28;20469;-76
2022/06/22 08:50:45;;;;;;;6.63;2.50;;;30.50;29.40;;;;;;5034685;28;20045;-76
2022/06/22 08:53:29;;;;;;;3.03;1.90;;;30.60;29.50;;;;;;5036079;28;20033;-76
2022/06/22 08:56:17;;;;;;;5.63;1.90;;;30.80;29.60;;;;;;5036115;28;20056;-76
2022/06/22 08:58:53;;;;;;;3.30;1.70;;;30.90;29.50;;;;;;5034803;28;20355;-77
2022/06/22 09:01:46;;;;;;;2.47;1.40;;;31.10;28.90;;;;;;5036017;28;20026;-78
2022/06/22 09:04:55;;;;;;;3.85;1.95;;;31.20;28.70;;;;;;5049128;28;20071;-75
2022/06/22 09:07:33;;;;;;;2.05;1.45;;;31.30;28.70;;;;;;5056599;28;20083;-76
2022/06/22 09:10:29;;;;;;;2.30;1.40;;;31.20;28.00;;;;;;5053285;28;20700;-76
2022/06/22 09:13:07;;;;;;;4.03;1.95;;;31.10;28.40;;;;;;5054615;28;20559;-75
2022/06/22 09:15:56;;;;;;;4.05;2.05;;;31.10;28.70;;;;;;5056617;28;20033;-77
2022/06/22 09:18:28;;;;;;;3.90;1.90;;;31.10;28.70;;;;;;5052182;28;20033;-77
2022/06/22 09:21:15;;;;;;;5.60;2.10;;;31.00;28.30;;;;;;5052632;28;20037;-76
2022/06/22 09:23:47;;;;;;;2.85;1.77;;;30.90;28.40;;;;;;5035264;28;20025;-76
2022/06/22 09:26:31;;;;;;;5.70;1.90;;;30.80;29.10;;;;;;5044448;28;20025;-75
2022/06/22 09:29:20;;;;;;;2.83;1.55;;;30.60;29.30;;;;;;5043501;28;20031;-76
2022/06/22 09:32:10;;;;;;;1.83;1.40;;;30.50;29.20;;;;;;5054008;28;20102;-77
2022/06/22 09:34:40;;;;;;;4.85;2.15;;;30.30;29.50;;;;;;5055041;28;20179;-76
2022/06/22 09:37:37;;;;;;;4.38;1.58;;;30.30;29.50;;;;;;5054259;28;20025;-76
2022/06/22 09:40:26;;;;;;;5.18;1.70;;;30.20;29.80;;;;;;5054028;28;20123;-77
2022/06/22 09:43:30;;;;;;;5.07;2.20;;;30.10;29.90;;;;;;5054152;28;20388;-77
2022/06/22 09:46:20;;;;;;;5.07;1.85;;;30.10;29.90;;;;;;5053829;28;20551;-77
2022/06/22 09:48:54;;;;;;;5.85;3.15;;;30.10;29.50;;;;;;5022799;28;20354;-76
2022/06/22 09:51:39;;;;;;;5.45;2.70;;;30.10;29.40;;;;;;5054746;28;20080;-76
2022/06/22 09:56:19;;;;;;;6.05;2.10;;;30.10;29.80;;;;;;5053713;28;20116;-78
2022/06/22 09:57:33;;;;;;;2.22;1.50;;;30.20;29.60;;;;;;5054700;28;20025;-77
2022/06/22 10:00:10;;;;;;;4.45;1.38;;;30.40;29.90;;;;;;5053698;28;20240;-80
2022/06/22 10:02:42;;;;;;;6.93;1.38;;;30.70;30.00;;;;;;5034906;28;20501;-76
2022/06/22 10:05:41;;;;;;;2.75;1.40;;;30.90;29.80;;;;;;5033348;28;20041;-75
2022/06/22 10:08:10;;;;;;;6.25;1.42;;;31.30;29.70;;;;;;5036135;28;20512;-76
2022/06/22 10:10:47;;;;;;;6.28;1.83;;;31.60;29.20;;;;;;5036584;28;20037;-76
2022/06/22 10:13:37;;;;;;;4.03;2.17;;;31.90;29.30;;;;;;5041387;28;20041;-75
2022/06/22 10:16:12;;;;;;;3.40;2.00;;;32.20;29.10;;;;;;5043830;28;20028;-76
2022/06/22 10:18:58;;;;;;;9.18;4.00;;;32.60;29.10;;;;;;5052112;28;20021;-75
2022/06/22 10:21:23;;;;;;;5.93;3.78;;;32.90;28.90;;;;;;5054524;28;20029;-76
2022/06/22 10:24:20;;;;;;;3.30;2.72;;;33.10;27.80;;;;;;5052698;28;20064;-76
2022/06/22 10:27:21;;;;;;;6.95;3.83;;;33.30;27.90;;;;;;5045175;28;20025;-76
2022/06/22 10:29:50;;;;;;;4.43;2.53;;;33.50;28.30;;;;;;5052805;28;20044;-76
2022/06/22 10:32:40;;;;;;;7.28;4.88;;;33.60;27.40;;;;;;5048199;28;20083;-76
2022/06/22 10:35:25;;;;;;;6.13;4.00;;;33.80;27.80;;;;;;5051189;28;20044;-76
2022/06/22 10:38:11;;;;;;;4.97;3.30;;;34.00;27.30;;;;;;5052290;28;20070;-76
2022/06/22 10:47:11;;;;;;;29.52;7.78;;;34.40;26.80;;;;;;5053039;28;20444;-76
2022/06/22 10:49:55;;;;;;;11.00;4.60;;;34.50;26.60;;;;;;5048976;28;20044;-79
2022/06/22 10:52:42;;;;;;;14.38;4.50;;;34.60;26.10;;;;;;5047857;28;20034;-75
2022/06/22 10:55:45;;;;;;;13.52;5.43;;;34.70;26.30;;;;;;5032948;28;20103;-75
2022/06/22 10:58:33;;;;;;;8.75;4.70;;;34.70;26.30;;;;;;5032212;28;20031;-77
2022/06/22 11:01:36;;;;;;;10.70;4.90;;;34.90;26.10;;;;;;5033021;28;20025;-80
2022/06/22 11:04:16;;;;;;;7.47;3.90;;;34.90;26.20;;;;;;5039804;28;20381;-76
2022/06/22 11:06:42;;;;;;;14.43;3.78;;;34.90;25.80;;;;;;5043110;28;20368;-80
2022/06/22 11:09:36;;;;;;;11.45;4.65;;;35.00;25.80;;;;;;5049071;28;20108;-78
2022/06/22 11:12:20;;;;;;;9.80;4.18;;;35.10;26.10;;;;;;5050025;28;20033;-79
2022/06/22 11:15:09;;;;;;;10.18;3.63;;;35.20;26.00;;;;;;5051705;28;20595;-80
2022/06/22 11:18:04;;;;;;;12.18;5.60;;;35.20;25.40;;;;;;5037311;28;20469;-80
2022/06/22 11:20:29;;;;;;;9.57;4.00;;;35.30;25.60;;;;;;5040290;28;20031;-79
2022/06/22 11:23:07;;;;;;;4.85;2.90;;;35.40;25.60;;;;;;5046693;28;20029;-79
2022/06/22 11:32:24;;;;;;;13.10;4.63;;;35.50;24.90;;;;;;5044959;28;20035;-78
2022/06/22 11:35:02;;;;;;;7.40;3.75;;;35.50;25.20;;;;;;5050692;28;20072;-78
2022/06/22 11:37:45;;;;;;;7.07;3.90;;;35.50;25.20;;;;;;5051650;28;20052;-79
2022/06/22 11:40:40;;;;;;;14.95;3.53;;;35.50;25.70;;;;;;5048689;28;20422;-79
2022/06/22 11:43:41;;;;;;;8.43;3.30;;;35.40;25.20;;;;;;5034795;28;20431;-79
2022/06/22 11:46:16;;;;;;;9.18;3.35;;;35.20;25.20;;;;;;5043051;28;20033;-80
2022/06/22 11:49:19;;;;;;;14.13;3.20;;;35.10;25.20;;;;;;5049271;28;20028;-79
2022/06/22 11:52:12;;;;;;;9.07;3.00;;;34.90;25.40;;;;;;5041123;28;20083;-81
2022/06/22 11:54:59;;;;;;;15.63;3.63;;;34.80;25.60;;;;;;5048531;28;20021;-79
2022/06/22 11:57:40;;;;;;;12.02;4.25;;;34.80;25.70;;;;;;5049442;28;20272;-79
2022/06/22 12:00:28;;;;;;;17.75;3.78;;;34.80;25.90;;;;;;5055297;28;20025;-80
2022/06/22 12:03:16;;;;;;;15.93;3.95;;;34.80;25.90;;;;;;5051267;28;20052;-79
2022/06/22 12:06:24;;;;;;;12.15;3.63;;;34.60;26.20;;;;;;5047034;28;20498;-81
2022/06/22 12:09:12;;;;;;;8.75;3.20;;;34.60;26.30;;;;;;5040866;28;20075;-79
2022/06/22 12:12:15;;;;;;;7.70;2.97;;;34.50;26.20;;;;;;5052578;28;20033;-79
2022/06/22 12:15:05;;;;;;;5.68;2.78;;;34.40;26.50;;;;;;5055773;28;20108;-79
2022/06/22 12:17:39;;;;;;;8.38;2.72;;;34.30;26.50;;;;;;5055440;28;20037;-78
2022/06/22 12:20:33;;;;;;;6.22;2.50;;;34.20;26.60;;;;;;5053090;28;20432;-81
2022/06/22 12:23:17;;;;;;;7.55;2.78;;;34.10;26.80;;;;;;5045385;28;20107;-78
2022/06/22 12:26:17;;;;;;;6.80;3.15;;;34.00;27.00;;;;;;5052833;28;20025;-77
2022/06/22 12:28:52;;;;;;;9.20;3.28;;;33.90;27.00;;;;;;5037807;28;20037;-77
2022/06/22 12:31:24;;;;;;;6.93;2.97;;;33.70;27.30;;;;;;5052666;28;20120;-77
2022/06/22 12:33:59;;;;;;;9.93;3.20;;;33.60;27.50;;;;;;5050488;28;20037;-78
2022/06/22 12:37:11;;;;;;;7.93;2.85;;;33.60;27.90;;;;;;5034643;28;20377;-77
2022/06/22 12:39:40;;;;;;;8.38;2.47;;;33.60;27.80;;;;;;4994399;28;20414;-78
2022/06/22 12:42:17;;;;;;;8.75;2.90;;;33.60;28.00;;;;;;5043834;28;20051;-78
2022/06/22 12:44:55;;;;;;;9.48;3.08;;;33.60;28.00;;;;;;5034291;28;20026;-79
2022/06/22 12:47:24;;;;;;;8.82;2.90;;;33.50;28.00;;;;;;5034082;28;20030;-79
2022/06/22 12:49:52;;;;;;;6.03;2.33;;;33.40;28.00;;;;;;5053120;28;20126;-76
2022/06/22 12:52:29;;;;;;;6.78;2.58;;;33.40;28.10;;;;;;5054254;28;20029;-76
2022/06/22 12:55:08;;;;;;;6.28;2.80;;;33.30;28.20;;;;;;5053986;28;20033;-76
2022/06/22 12:57:48;;;;;;;5.85;2.63;;;33.20;28.40;;;;;;5048040;28;20392;-78
2022/06/22 13:00:18;;;;;;;11.63;2.97;;;33.10;28.80;;;;;;5037577;28;20017;-77
2022/06/22 13:02:46;;;;;;;11.10;3.30;;;33.00;29.70;;;;;;5053874;28;20431;-78
2022/06/22 13:05:15;;;;;;;6.72;2.83;;;32.80;29.80;;;;;;5055305;28;20500;-78
2022/06/22 13:07:56;;;;;;;12.23;3.50;;;32.70;29.80;;;;;;5054158;28;20029;-78
2022/06/22 13:10:25;;;;;;;9.68;3.28;;;32.60;30.30;;;;;;5053235;28;20029;-78
2022/06/22 13:13:23;;;;;;;9.27;3.20;;;32.50;30.70;;;;;;5053720;28;20084;-78
2022/06/22 13:16:27;;;;;;;10.48;2.70;;;32.40;30.70;;;;;;5050658;28;20062;-78
2022/06/22 13:20:00;;;;;;;8.60;3.03;;;32.30;30.90;;;;;;5042696;28;20025;-79
2022/06/22 13:22:53;;;;;;;11.15;2.95;;;32.10;30.90;;;;;;4985402;28;20042;-78
2022/06/22 13:25:54;;;;;;;9.70;2.70;;;32.00;32.10;;;;;;4996380;28;20137;-78
2022/06/22 13:28:40;;;;;;;6.20;2.92;;;31.90;33.30;;;;;;4983870;28;20482;-79
2022/06/22 13:31:17;;;;;;;4.82;2.50;;;31.70;32.70;;;;;;4995179;28;20030;-79
2022/06/22 13:33:49;;;;;;;9.48;3.60;;;31.60;33.00;;;;;;4990704;28;20371;-78
2022/06/22 13:36:53;;;;;;;8.38;3.15;;;31.60;33.70;;;;;;4990053;28;20022;-79
2022/06/22 13:39:31;;;;;;;;;;;31.60;33.80;;;;;;4992529;28;20096;-79
2022/06/22 13:42:18;;;;;;;6.45;2.70;;;31.70;33.00;;;;;;4997613;28;20393;-78
2022/06/22 13:45:21;;;;;;;9.32;4.20;;;31.70;34.00;;;;;;5011936;28;20033;-79
2022/06/22 13:47:49;;;;;;;6.53;2.55;;;31.80;33.80;;;;;;4994545;28;20466;-78
2022/06/22 13:50:39;;;;;;;15.38;3.00;;;31.90;34.00;;;;;;5006398;28;20160;-80
2022/06/22 13:53:53;;;;;;;10.13;2.75;;;31.90;33.90;;;;;;5042107;28;20049;-79
2022/06/22 13:56:57;;;;;;;18.80;7.53;;;32.00;33.30;;;;;;5009170;28;20486;-79
2022/06/22 14:00:03;;;;;;;13.70;5.38;;;32.10;33.30;;;;;;5039271;28;20048;-78
2022/06/22 14:02:37;;;;;;;6.85;3.10;;;32.10;33.20;;;;;;4968393;28;20129;-73
2022/06/22 14:05:15;;;;;;;8.32;3.10;;;32.10;33.40;;;;;;5025669;28;20489;-79
2022/06/22 14:08:17;;;;;;;11.32;2.85;;;32.10;33.60;;;;;;5046417;28;20028;-80
2022/06/22 14:11:02;;;;;;;9.15;2.92;;;32.00;33.40;;;;;;5033514;28;20462;-80
2022/06/22 14:13:43;;;;;;;7.78;2.78;;;31.90;33.80;;;;;;5047706;28;20370;-80
2022/06/22 14:16:35;;;;;;;8.55;3.15;;;31.80;34.10;;;;;;5050293;28;20025;-78
2022/06/22 14:19:08;;;;;;;7.85;2.72;;;31.60;34.00;;;;;;5049938;28;20112;-80